createdAt,value
2018-09-06T00:01:03.851Z,14.9
2018-09-06T00:02:11.067Z,14.9
2018-09-06T00:03:18.281Z,14.9
2018-09-06T00:04:25.492Z,14.9
2018-09-06T00:05:32.711Z,14.9
2018-09-06T00:06:39.922Z,14.9
2018-09-06T00:07:47.138Z,14.9
2018-09-06T00:08:54.354Z,14.9
2018-09-06T00:10:01.575Z,14.8
2018-09-06T00:11:08.790Z,14.8
2018-09-06T00:12:16.009Z,14.8
2018-09-06T00:13:22.949Z,14.8
2018-09-06T00:14:30.171Z,14.8
2018-09-06T00:15:52.035Z,14.8
2018-09-06T00:16:59.243Z,14.8
2018-09-06T00:18:06.181Z,14.8
2018-09-06T00:19:13.395Z,14.7
2018-09-06T00:20:20.609Z,14.7
2018-09-06T00:21:27.828Z,14.7
2018-09-06T00:22:35.041Z,14.7
2018-09-06T00:23:42.256Z,14.7
2018-09-06T00:24:49.196Z,14.7
2018-09-06T00:25:56.408Z,14.7
2018-09-06T00:27:03.621Z,14.7
2018-09-06T00:28:10.831Z,14.7
2018-09-06T00:29:18.043Z,14.6
2018-09-06T00:30:25.258Z,14.6
2018-09-06T00:31:32.468Z,14.6
2018-09-06T00:32:39.689Z,14.6
2018-09-06T00:33:46.902Z,14.6
2018-09-06T00:34:54.116Z,14.6
2018-09-06T00:36:01.330Z,14.6
2018-09-06T00:37:08.541Z,14.6
2018-09-06T00:38:15.759Z,14.6
2018-09-06T00:39:22.971Z,14.5
2018-09-06T00:40:30.183Z,14.5
2018-09-06T00:41:37.398Z,14.5
2018-09-06T00:42:44.609Z,14.5
2018-09-06T00:43:51.555Z,14.5
2018-09-06T00:44:58.769Z,14.5
2018-09-06T00:46:05.983Z,14.5
2018-09-06T00:47:13.204Z,14.5
2018-09-06T00:48:20.128Z,14.5
2018-09-06T00:49:27.337Z,14.4
2018-09-06T00:50:34.555Z,14.4
2018-09-06T00:51:41.767Z,14.4
2018-09-06T00:52:48.977Z,14.4
2018-09-06T00:53:56.190Z,14.4
2018-09-06T00:55:03.416Z,14.4
2018-09-06T00:56:10.629Z,14.4
2018-09-06T00:57:17.842Z,14.3
2018-09-06T00:58:25.054Z,14.3
2018-09-06T00:59:32.266Z,14.3
2018-09-06T01:00:39.481Z,14.4
2018-09-06T01:01:46.697Z,14.4
2018-09-06T01:02:53.913Z,14.4
2018-09-06T01:04:01.129Z,14.4
2018-09-06T01:05:08.344Z,14.3
2018-09-06T01:06:15.554Z,14.3
2018-09-06T01:07:22.497Z,14.3
2018-09-06T01:08:29.707Z,14.3
2018-09-06T01:09:36.919Z,14.2
2018-09-06T01:10:44.130Z,14.2
2018-09-06T01:11:51.340Z,14.2
2018-09-06T01:12:58.559Z,14.2
2018-09-06T01:14:05.767Z,14.2
2018-09-06T01:15:12.978Z,14.2
2018-09-06T01:16:20.190Z,14.2
2018-09-06T01:17:27.398Z,14.2
2018-09-06T01:18:34.609Z,14.1
2018-09-06T01:19:41.549Z,14.1
2018-09-06T01:20:48.761Z,14.1
2018-09-06T01:21:55.977Z,14.2
2018-09-06T01:23:03.190Z,14.1
2018-09-06T01:24:10.408Z,14.1
2018-09-06T01:25:17.618Z,14.1
2018-09-06T01:26:24.551Z,14.1
2018-09-06T01:27:31.490Z,14.1
2018-09-06T01:28:38.699Z,14.1
2018-09-06T01:29:45.636Z,14.1
2018-09-06T01:30:52.845Z,14
2018-09-06T01:32:00.057Z,14
2018-09-06T01:33:06.996Z,14
2018-09-06T01:34:14.220Z,14
2018-09-06T01:35:21.147Z,14
2018-09-06T01:36:28.362Z,14
2018-09-06T01:37:35.571Z,14
2018-09-06T01:38:42.789Z,13.9
2018-09-06T01:39:49.997Z,13.9
2018-09-06T01:40:57.211Z,13.9
2018-09-06T01:42:04.419Z,13.9
2018-09-06T01:43:11.627Z,13.9
2018-09-06T01:44:18.845Z,13.9
2018-09-06T01:45:26.061Z,13.9
2018-09-06T01:46:33.280Z,13.9
2018-09-06T01:47:40.490Z,13.9
2018-09-06T01:48:47.697Z,13.9
2018-09-06T01:49:54.907Z,13.9
2018-09-06T01:51:01.857Z,13.9
2018-09-06T01:52:09.072Z,13.9
2018-09-06T01:53:16.290Z,13.9
2018-09-06T01:54:23.488Z,13.9
2018-09-06T01:55:30.699Z,13.9
2018-09-06T01:56:37.367Z,13.8
2018-09-06T01:57:44.307Z,13.8
2018-09-06T01:58:51.517Z,13.8
2018-09-06T01:59:58.730Z,13.7
2018-09-06T02:01:05.959Z,13.7
2018-09-06T02:02:13.165Z,13.7
2018-09-06T02:03:20.108Z,13.7
2018-09-06T02:04:27.321Z,13.7
2018-09-06T02:05:34.533Z,13.7
2018-09-06T02:06:41.743Z,13.7
2018-09-06T02:07:48.958Z,13.6
2018-09-06T02:08:56.171Z,13.6
2018-09-06T02:10:03.382Z,13.6
2018-09-06T02:11:10.594Z,13.6
2018-09-06T02:12:17.808Z,13.6
2018-09-06T02:13:25.025Z,13.6
2018-09-06T02:14:32.233Z,13.6
2018-09-06T02:15:39.445Z,13.5
2018-09-06T02:16:46.384Z,13.6
2018-09-06T02:17:53.594Z,13.5
2018-09-06T02:19:00.806Z,13.5
2018-09-06T02:20:08.031Z,13.5
2018-09-06T02:21:15.246Z,13.5
2018-09-06T02:22:22.490Z,13.5
2018-09-06T02:23:29.722Z,13.4
2018-09-06T02:24:36.642Z,13.4
2018-09-06T02:25:43.582Z,13.4
2018-09-06T02:26:50.790Z,13.4
2018-09-06T02:27:58.000Z,13.4
2018-09-06T02:29:05.212Z,13.4
2018-09-06T02:30:12.439Z,13.4
2018-09-06T02:31:19.653Z,13.4
2018-09-06T02:32:26.861Z,13.4
2018-09-06T02:33:34.077Z,13.4
2018-09-06T02:34:41.288Z,13.4
2018-09-06T02:35:48.224Z,13.4
2018-09-06T02:36:55.439Z,13.3
2018-09-06T02:38:02.651Z,13.3
2018-09-06T02:39:09.861Z,13.3
2018-09-06T02:40:17.073Z,13.3
2018-09-06T02:41:24.285Z,13.3
2018-09-06T02:42:31.508Z,13.3
2018-09-06T02:43:38.718Z,13.3
2018-09-06T02:44:45.932Z,13.3
2018-09-06T02:45:53.144Z,13.2
2018-09-06T02:47:00.357Z,13.2
2018-09-06T02:48:07.292Z,13.2
2018-09-06T02:49:14.505Z,13.3
2018-09-06T02:50:21.723Z,13.2
2018-09-06T02:51:28.933Z,13.2
2018-09-06T02:52:36.143Z,13.2
2018-09-06T02:53:43.463Z,13.2
2018-09-06T02:54:50.699Z,13.2
2018-09-06T02:55:57.913Z,13.2
2018-09-06T02:57:05.129Z,13.2
2018-09-06T02:58:12.343Z,13.2
2018-09-06T02:59:19.556Z,13.2
2018-09-06T03:00:26.501Z,13.1
2018-09-06T03:01:33.435Z,13.1
2018-09-06T03:02:40.645Z,13.1
2018-09-06T03:03:47.856Z,13.1
2018-09-06T03:04:55.070Z,13.1
2018-09-06T03:06:02.288Z,13.1
2018-09-06T03:07:09.498Z,13.1
2018-09-06T03:08:16.442Z,13.1
2018-09-06T03:09:23.388Z,13.1
2018-09-06T03:10:30.598Z,13.1
2018-09-06T03:11:37.804Z,13.1
2018-09-06T03:12:45.016Z,13.1
2018-09-06T03:13:51.958Z,13.1
2018-09-06T03:14:59.170Z,13
2018-09-06T03:16:06.377Z,13
2018-09-06T03:17:13.589Z,13
2018-09-06T03:18:20.796Z,13
2018-09-06T03:19:28.006Z,13
2018-09-06T03:20:35.213Z,13
2018-09-06T03:21:42.418Z,13
2018-09-06T03:22:49.356Z,13
2018-09-06T03:23:56.571Z,13
2018-09-06T03:25:03.783Z,13
2018-09-06T03:26:11.001Z,13.1
2018-09-06T03:27:18.215Z,13.1
2018-09-06T03:28:25.432Z,13.1
2018-09-06T03:29:32.642Z,13.1
2018-09-06T03:30:39.855Z,13.1
2018-09-06T03:31:47.066Z,13.1
2018-09-06T03:32:54.282Z,13.1
2018-09-06T03:34:01.217Z,13.2
2018-09-06T03:35:08.456Z,13.2
2018-09-06T03:36:15.668Z,13.2
2018-09-06T03:37:22.605Z,13.3
2018-09-06T03:38:29.816Z,13.3
2018-09-06T03:39:36.763Z,13.3
2018-09-06T03:40:43.972Z,13.3
2018-09-06T03:41:50.914Z,13.3
2018-09-06T03:42:58.123Z,13.3
2018-09-06T03:44:05.336Z,13.3
2018-09-06T03:45:12.279Z,13.3
2018-09-06T03:46:19.483Z,13.3
2018-09-06T03:47:26.691Z,13.2
2018-09-06T03:48:33.903Z,13.2
2018-09-06T03:49:41.115Z,13.2
2018-09-06T03:50:48.323Z,13.2
2018-09-06T03:51:55.535Z,13.3
2018-09-06T03:53:02.742Z,13.3
2018-09-06T03:54:09.960Z,13.3
2018-09-06T03:55:17.169Z,13.3
2018-09-06T03:56:24.379Z,13.2
2018-09-06T03:57:31.589Z,13.2
2018-09-06T03:58:38.800Z,13.2
2018-09-06T03:59:46.010Z,13.2
2018-09-06T04:00:53.221Z,13.2
2018-09-06T04:02:00.429Z,13.1
2018-09-06T04:03:07.640Z,13.1
2018-09-06T04:04:14.854Z,13.1
2018-09-06T04:05:22.071Z,13.1
2018-09-06T04:06:29.293Z,13.1
2018-09-06T04:07:36.506Z,13
2018-09-06T04:08:43.442Z,13
2018-09-06T04:09:50.649Z,13
2018-09-06T04:10:57.589Z,13
2018-09-06T04:12:04.809Z,12.9
2018-09-06T04:13:12.017Z,13
2018-09-06T04:14:19.233Z,12.9
2018-09-06T04:15:26.167Z,12.9
2018-09-06T04:16:33.383Z,12.9
2018-09-06T04:17:40.308Z,12.9
2018-09-06T04:18:47.243Z,12.9
2018-09-06T04:19:54.453Z,12.9
2018-09-06T04:21:01.665Z,12.8
2018-09-06T04:22:08.872Z,12.9
2018-09-06T04:23:16.081Z,12.9
2018-09-06T04:24:23.445Z,12.9
2018-09-06T04:25:30.899Z,12.8
2018-09-06T04:26:38.115Z,12.8
2018-09-06T04:27:45.323Z,12.8
2018-09-06T04:28:52.262Z,12.8
2018-09-06T04:29:59.476Z,12.8
2018-09-06T04:31:06.680Z,12.8
2018-09-06T04:32:13.947Z,12.7
2018-09-06T04:33:21.160Z,12.7
2018-09-06T04:34:28.365Z,12.7
2018-09-06T04:35:35.736Z,12.7
2018-09-06T04:36:43.298Z,12.7
2018-09-06T04:37:50.222Z,12.8
2018-09-06T04:38:57.434Z,12.8
2018-09-06T04:40:04.643Z,12.8
2018-09-06T04:41:11.584Z,12.8
2018-09-06T04:42:18.804Z,12.8
2018-09-06T04:43:26.017Z,12.8
2018-09-06T04:44:33.232Z,12.7
2018-09-06T04:45:40.453Z,12.7
2018-09-06T04:46:47.667Z,12.7
2018-09-06T04:47:54.901Z,12.7
2018-09-06T04:49:02.113Z,12.7
2018-09-06T04:50:09.324Z,12.7
2018-09-06T04:51:16.535Z,12.7
2018-09-06T04:52:23.746Z,12.6
2018-09-06T04:53:30.956Z,12.6
2018-09-06T04:54:37.888Z,12.6
2018-09-06T04:55:45.103Z,12.6
2018-09-06T04:56:52.315Z,12.6
2018-09-06T04:57:59.523Z,12.6
2018-09-06T04:59:06.737Z,12.6
2018-09-06T05:00:13.951Z,12.6
2018-09-06T05:01:21.313Z,12.6
2018-09-06T05:02:28.524Z,12.7
2018-09-06T05:03:35.735Z,12.6
2018-09-06T05:04:42.950Z,12.7
2018-09-06T05:05:49.888Z,12.7
2018-09-06T05:06:57.105Z,12.7
2018-09-06T05:08:04.035Z,12.6
2018-09-06T05:09:11.245Z,12.7
2018-09-06T05:10:18.455Z,12.7
2018-09-06T05:11:25.671Z,12.7
2018-09-06T05:12:32.882Z,12.6
2018-09-06T05:13:40.097Z,12.6
2018-09-06T05:14:47.310Z,12.6
2018-09-06T05:15:54.519Z,12.6
2018-09-06T05:17:01.732Z,12.6
2018-09-06T05:18:08.942Z,12.6
2018-09-06T05:19:16.150Z,12.7
2018-09-06T05:20:23.365Z,12.7
2018-09-06T05:21:30.312Z,12.7
2018-09-06T05:22:52.177Z,12.7
2018-09-06T05:23:59.387Z,12.8
2018-09-06T05:25:06.600Z,12.8
2018-09-06T05:26:13.809Z,12.8
2018-09-06T05:27:21.032Z,12.8
2018-09-06T05:28:28.242Z,12.9
2018-09-06T05:29:35.455Z,12.9
2018-09-06T05:30:42.487Z,12.9
2018-09-06T05:31:49.794Z,13
2018-09-06T05:32:57.007Z,13
2018-09-06T05:34:04.218Z,13
2018-09-06T05:35:11.645Z,13.1
2018-09-06T05:36:19.208Z,13.1
2018-09-06T05:37:26.616Z,13.1
2018-09-06T05:38:33.831Z,13.1
2018-09-06T05:39:41.031Z,13.1
2018-09-06T05:40:48.244Z,13.2
2018-09-06T05:41:55.456Z,13.2
2018-09-06T05:43:02.661Z,13.2
2018-09-06T05:44:09.867Z,13.2
2018-09-06T05:45:17.073Z,13.2
2018-09-06T05:46:24.290Z,13.2
2018-09-06T05:47:31.641Z,13.2
2018-09-06T05:48:39.162Z,13.3
2018-09-06T05:49:46.365Z,13.3
2018-09-06T05:50:53.578Z,13.3
2018-09-06T05:52:00.509Z,13.4
2018-09-06T05:53:07.729Z,13.4
2018-09-06T05:54:14.942Z,13.4
2018-09-06T05:55:22.155Z,13.4
2018-09-06T05:56:29.368Z,13.5
2018-09-06T05:57:36.578Z,13.5
2018-09-06T05:58:43.787Z,13.6
2018-09-06T05:59:51.058Z,13.6
2018-09-06T06:00:58.414Z,13.7
2018-09-06T06:02:05.623Z,13.7
2018-09-06T06:03:12.842Z,13.8
2018-09-06T06:04:20.052Z,13.8
2018-09-06T06:05:27.278Z,13.9
2018-09-06T06:06:34.478Z,14
2018-09-06T06:07:41.697Z,14
2018-09-06T06:08:48.907Z,14.1
2018-09-06T06:09:56.119Z,14.1
2018-09-06T06:11:02.791Z,14.2
2018-09-06T06:12:10.013Z,14.3
2018-09-06T06:13:17.220Z,14.3
2018-09-06T06:14:24.439Z,14.4
2018-09-06T06:15:31.649Z,14.5
2018-09-06T06:16:38.597Z,14.6
2018-09-06T06:17:45.574Z,14.7
2018-09-06T06:18:52.783Z,14.7
2018-09-06T06:20:00.095Z,14.9
2018-09-06T06:21:07.604Z,14.9
2018-09-06T06:22:14.926Z,15
2018-09-06T06:23:22.191Z,15.1
2018-09-06T06:24:29.149Z,15.3
2018-09-06T06:25:36.360Z,15.4
2018-09-06T06:26:43.568Z,15.5
2018-09-06T06:27:50.823Z,15.6
2018-09-06T06:28:58.028Z,15.8
2018-09-06T06:30:05.245Z,15.9
2018-09-06T06:31:12.456Z,16
2018-09-06T06:32:19.839Z,16.1
2018-09-06T06:33:27.287Z,16.2
2018-09-06T06:34:34.496Z,16.3
2018-09-06T06:35:41.438Z,16.4
2018-09-06T06:36:48.656Z,16.5
2018-09-06T06:37:55.866Z,16.6
2018-09-06T06:39:03.078Z,16.7
2018-09-06T06:40:10.293Z,16.7
2018-09-06T06:41:17.511Z,16.8
2018-09-06T06:42:24.722Z,16.9
2018-09-06T06:43:31.944Z,17
2018-09-06T06:44:39.152Z,17.1
2018-09-06T06:45:46.366Z,17.2
2018-09-06T06:46:53.585Z,17.4
2018-09-06T06:48:00.790Z,17.5
2018-09-06T06:49:08.003Z,17.6
2018-09-06T06:50:15.330Z,17.8
2018-09-06T06:51:22.567Z,17.9
2018-09-06T06:52:29.779Z,18
2018-09-06T06:53:36.992Z,18.1
2018-09-06T06:54:43.936Z,18.2
2018-09-06T06:55:51.153Z,18.3
2018-09-06T06:56:58.364Z,18.5
2018-09-06T06:58:05.595Z,18.6
2018-09-06T06:59:12.830Z,18.7
2018-09-06T07:00:20.046Z,18.7
2018-09-06T07:01:27.258Z,18.8
2018-09-06T07:02:34.470Z,18.9
2018-09-06T07:03:41.689Z,19.1
2018-09-06T07:04:48.631Z,19.2
2018-09-06T07:05:55.843Z,19.4
2018-09-06T07:07:03.306Z,19.5
2018-09-06T07:08:10.935Z,19.6
2018-09-06T07:09:18.151Z,19.6
2018-09-06T07:10:25.361Z,19.7
2018-09-06T07:11:32.574Z,19.8
2018-09-06T07:12:39.523Z,19.9
2018-09-06T07:13:46.733Z,20
2018-09-06T07:14:53.957Z,20.1
2018-09-06T07:16:01.199Z,20.2
2018-09-06T07:17:08.419Z,20.3
2018-09-06T07:18:15.822Z,20.5
2018-09-06T07:19:23.306Z,20.6
2018-09-06T07:20:30.520Z,20.7
2018-09-06T07:21:37.739Z,20.8
2018-09-06T07:22:44.950Z,20.9
2018-09-06T07:23:51.895Z,21
2018-09-06T07:24:59.115Z,21.1
2018-09-06T07:26:06.371Z,21.2
2018-09-06T07:27:13.583Z,21.3
2018-09-06T07:28:20.802Z,21.4
2018-09-06T07:29:28.021Z,21.5
2018-09-06T07:30:34.980Z,21.7
2018-09-06T07:31:42.356Z,21.7
2018-09-06T07:32:49.569Z,21.7
2018-09-06T07:33:56.783Z,21.5
2018-09-06T07:35:04.004Z,21.5
2018-09-06T07:36:11.260Z,21.6
2018-09-06T07:37:18.480Z,21.7
2018-09-06T07:38:25.698Z,21.8
2018-09-06T07:39:32.918Z,21.8
2018-09-06T07:40:40.133Z,21.8
2018-09-06T07:41:47.344Z,22
2018-09-06T07:42:54.567Z,22
2018-09-06T07:44:01.783Z,22
2018-09-06T07:45:09.000Z,22
2018-09-06T07:46:16.220Z,22
2018-09-06T07:47:23.431Z,22
2018-09-06T07:48:30.413Z,22.1
2018-09-06T07:49:37.634Z,22.2
2018-09-06T07:50:44.851Z,22.3
2018-09-06T07:51:51.794Z,22.6
2018-09-06T07:52:59.009Z,22.7
2018-09-06T07:54:06.240Z,22.8
2018-09-06T07:55:13.468Z,22.8
2018-09-06T07:56:20.696Z,22.9
2018-09-06T07:57:27.913Z,22.8
2018-09-06T07:58:35.134Z,22.9
2018-09-06T07:59:42.347Z,23
2018-09-06T08:00:49.566Z,23
2018-09-06T08:01:56.783Z,23.1
2018-09-06T08:03:03.998Z,23
2018-09-06T08:04:11.216Z,23
2018-09-06T08:05:18.432Z,23
2018-09-06T08:06:25.651Z,23
2018-09-06T08:07:32.867Z,23
2018-09-06T08:08:40.096Z,23.2
2018-09-06T08:09:47.315Z,23.2
2018-09-06T08:10:54.536Z,23.2
2018-09-06T08:12:01.822Z,23.3
2018-09-06T08:13:09.110Z,23.5
2018-09-06T08:14:16.329Z,23.6
2018-09-06T08:15:23.549Z,23.5
2018-09-06T08:16:30.765Z,23.6
2018-09-06T08:17:37.993Z,23.7
2018-09-06T08:18:45.306Z,24
2018-09-06T08:19:52.517Z,23.9
2018-09-06T08:20:59.731Z,24.1
2018-09-06T08:22:06.682Z,24.2
2018-09-06T08:23:13.893Z,24.4
2018-09-06T08:24:21.336Z,24.5
2018-09-06T08:25:28.915Z,24.7
2018-09-06T08:26:35.853Z,24.5
2018-09-06T08:27:43.070Z,24.5
2018-09-06T08:28:50.300Z,24.3
2018-09-06T08:29:57.240Z,24.1
2018-09-06T08:31:04.684Z,23.9
2018-09-06T08:32:12.422Z,23.9
2018-09-06T08:33:19.363Z,24.2
2018-09-06T08:34:26.585Z,24.3
2018-09-06T08:35:33.807Z,24.3
2018-09-06T08:36:41.060Z,24.2
2018-09-06T08:37:48.318Z,24.2
2018-09-06T08:38:55.257Z,24.1
2018-09-06T08:40:02.203Z,24.3
2018-09-06T08:41:09.423Z,24.2
2018-09-06T08:42:16.643Z,24.3
2018-09-06T08:43:23.916Z,24.5
2018-09-06T08:44:31.136Z,24.7
2018-09-06T08:45:38.355Z,24.9
2018-09-06T08:46:45.567Z,24.8
2018-09-06T08:47:52.830Z,24.9
2018-09-06T08:49:00.058Z,24.7
2018-09-06T08:50:07.008Z,24.7
2018-09-06T08:51:14.229Z,24.9
2018-09-06T08:52:21.533Z,24.9
2018-09-06T08:53:28.867Z,25
2018-09-06T08:54:36.083Z,25.1
2018-09-06T08:55:43.299Z,24.7
2018-09-06T08:56:50.520Z,24.7
2018-09-06T08:57:57.476Z,24.7
2018-09-06T08:59:04.697Z,25
2018-09-06T09:00:11.939Z,25.3
2018-09-06T09:01:19.163Z,25.5
2018-09-06T09:02:26.631Z,25.5
2018-09-06T09:03:34.208Z,25.6
2018-09-06T09:04:41.585Z,25.7
2018-09-06T09:05:49.057Z,25.8
2018-09-06T09:06:56.303Z,25.8
2018-09-06T09:08:03.529Z,25.5
2018-09-06T09:09:10.465Z,25.6
2018-09-06T09:10:17.406Z,25.4
2018-09-06T09:11:24.633Z,25.5
2018-09-06T09:12:32.008Z,25.4
2018-09-06T09:13:39.513Z,25.2
2018-09-06T09:14:46.732Z,25.3
2018-09-06T09:15:53.686Z,25
2018-09-06T09:17:00.918Z,25
2018-09-06T09:18:08.141Z,25.2
2018-09-06T09:19:15.357Z,25.4
2018-09-06T09:20:22.593Z,25.7
2018-09-06T09:21:29.880Z,25.9
2018-09-06T09:22:37.112Z,25.9
2018-09-06T09:23:44.333Z,25.8
2018-09-06T09:24:51.563Z,26
2018-09-06T09:25:58.784Z,26.2
2018-09-06T09:27:05.776Z,26.4
2018-09-06T09:28:12.734Z,26.4
2018-09-06T09:29:19.949Z,26.1
2018-09-06T09:30:27.312Z,26
2018-09-06T09:31:34.598Z,26
2018-09-06T09:32:41.824Z,26.1
2018-09-06T09:33:48.772Z,26.2
2018-09-06T09:34:55.989Z,26.3
2018-09-06T09:36:03.389Z,26.4
2018-09-06T09:37:10.500Z,26.5
2018-09-06T09:38:17.724Z,26.6
2018-09-06T09:39:24.938Z,26.6
2018-09-06T09:40:32.187Z,26.6
2018-09-06T09:41:39.393Z,26.4
2018-09-06T09:42:46.621Z,26.2
2018-09-06T09:43:53.833Z,26.2
2018-09-06T09:45:01.055Z,26.3
2018-09-06T09:48:20.642Z,26.1
2018-09-06T09:49:28.034Z,26.1
2018-09-06T09:51:41.465Z,26.2
2018-09-06T09:52:48.685Z,26.2
2018-09-06T09:53:55.907Z,26.5
2018-09-06T09:55:03.128Z,26.5
2018-09-06T09:56:10.369Z,26.9
2018-09-06T09:57:32.245Z,26.9
2018-09-06T09:58:39.460Z,27.1
2018-09-06T09:59:46.681Z,27.2
2018-09-06T10:00:53.896Z,26.9
2018-09-06T10:02:01.112Z,26.7
2018-09-06T10:03:08.399Z,26.9
2018-09-06T10:04:15.618Z,27.2
2018-09-06T10:05:22.843Z,27.1
2018-09-06T10:06:30.215Z,27
2018-09-06T10:07:37.424Z,27.1
2018-09-06T10:08:44.367Z,26.7
2018-09-06T10:09:51.319Z,26.6
2018-09-06T10:10:58.556Z,26.6
2018-09-06T10:12:05.768Z,26.8
2018-09-06T10:13:12.999Z,27
2018-09-06T10:14:20.220Z,27.3
2018-09-06T10:15:27.166Z,27.4
2018-09-06T10:16:34.384Z,27.3
2018-09-06T10:17:41.599Z,27
2018-09-06T10:18:48.543Z,26.9
2018-09-06T10:19:55.763Z,27.1
2018-09-06T10:21:02.981Z,26.9
2018-09-06T10:22:10.200Z,27
2018-09-06T10:23:17.426Z,27.1
2018-09-06T10:24:24.370Z,27.3
2018-09-06T10:25:31.588Z,27.5
2018-09-06T10:26:38.824Z,27.6
2018-09-06T10:27:46.055Z,27.7
2018-09-06T10:28:53.260Z,27.7
2018-09-06T10:30:00.483Z,27.6
2018-09-06T10:31:07.707Z,27.7
2018-09-06T10:32:14.932Z,27.9
2018-09-06T10:33:22.158Z,28.1
2018-09-06T10:34:29.390Z,28.4
2018-09-06T10:35:36.613Z,28.6
2018-09-06T10:36:43.832Z,28.4
2018-09-06T10:37:51.051Z,28
2018-09-06T10:38:57.992Z,27.6
2018-09-06T10:40:05.428Z,27.3
2018-09-06T10:41:13.022Z,27.4
2018-09-06T10:42:20.251Z,27.4
2018-09-06T10:43:27.474Z,27.4
2018-09-06T10:44:34.410Z,27.4
2018-09-06T10:45:41.365Z,27.4
2018-09-06T10:46:48.585Z,27.4
2018-09-06T10:47:55.935Z,27.7
2018-09-06T10:49:03.334Z,27.7
2018-09-06T10:50:10.555Z,28
2018-09-06T10:51:17.773Z,28.2
2018-09-06T10:52:25.000Z,28.4
2018-09-06T10:53:31.942Z,28.5
2018-09-06T10:54:39.163Z,28.8
2018-09-06T10:55:46.380Z,28.9
2018-09-06T10:56:53.322Z,28.8
2018-09-06T10:58:00.541Z,28.2
2018-09-06T10:59:07.767Z,27.9
2018-09-06T11:00:14.995Z,28.1
2018-09-06T11:01:21.947Z,28.3
2018-09-06T11:02:29.176Z,28.7
2018-09-06T11:03:36.393Z,28.8
2018-09-06T11:04:43.617Z,28.8
2018-09-06T11:05:50.833Z,28.5
2018-09-06T11:06:58.060Z,28.2
2018-09-06T11:08:05.577Z,28.1
2018-09-06T11:09:13.345Z,28.3
2018-09-06T11:10:20.558Z,28.1
2018-09-06T11:11:27.775Z,28.4
2018-09-06T11:12:34.991Z,28.6
2018-09-06T11:13:42.207Z,28.5
2018-09-06T11:14:49.153Z,28.4
2018-09-06T11:15:56.368Z,28.7
2018-09-06T11:17:03.587Z,28.9
2018-09-06T11:18:10.944Z,28.9
2018-09-06T11:19:18.189Z,29.2
2018-09-06T11:20:25.411Z,29.6
2018-09-06T11:21:32.955Z,29.6
2018-09-06T11:22:40.985Z,29.5
2018-09-06T11:23:48.866Z,29.3
2018-09-06T11:24:56.091Z,29.2
2018-09-06T11:26:03.035Z,29.1
2018-09-06T11:27:10.258Z,28.9
2018-09-06T11:28:17.477Z,29
2018-09-06T11:29:24.702Z,29
2018-09-06T11:30:31.994Z,29.3
2018-09-06T11:31:39.210Z,29.6
2018-09-06T11:32:46.427Z,29.5
2018-09-06T11:33:53.652Z,29.6
2018-09-06T11:35:00.602Z,29.4
2018-09-06T11:36:07.823Z,29
2018-09-06T11:37:15.035Z,28.9
2018-09-06T11:38:22.261Z,29.2
2018-09-06T11:39:29.483Z,29.5
2018-09-06T11:40:36.704Z,29.9
2018-09-06T11:41:43.931Z,30.4
2018-09-06T11:42:51.153Z,30.7
2018-09-06T11:43:58.367Z,30.7
2018-09-06T11:45:05.315Z,30.1
2018-09-06T11:46:12.529Z,29.9
2018-09-06T11:47:19.795Z,30.2
2018-09-06T11:48:27.503Z,30.6
2018-09-06T11:49:34.727Z,30.7
2018-09-06T11:50:41.960Z,31
2018-09-06T11:51:48.903Z,31.3
2018-09-06T11:52:56.124Z,31.3
2018-09-06T11:54:02.795Z,31.4
2018-09-06T11:55:10.013Z,31.3
2018-09-06T11:56:17.237Z,31
2018-09-06T11:57:24.455Z,30.3
2018-09-06T11:58:31.677Z,29.9
2018-09-06T11:59:38.896Z,29.9
2018-09-06T12:00:46.116Z,30
2018-09-06T12:01:53.329Z,30.1
2018-09-06T12:03:00.282Z,30
2018-09-06T12:04:07.500Z,29.7
2018-09-06T12:05:14.451Z,29.2
2018-09-06T12:06:21.403Z,29
2018-09-06T12:07:28.624Z,29.1
2018-09-06T12:08:35.844Z,29.2
2018-09-06T12:09:42.794Z,29.5
2018-09-06T12:10:50.019Z,29.6
2018-09-06T12:11:56.966Z,29.9
2018-09-06T12:13:04.188Z,30.3
2018-09-06T12:14:11.141Z,30.7
2018-09-06T12:15:18.575Z,30.3
2018-09-06T12:16:25.520Z,30.1
2018-09-06T12:17:32.741Z,29.9
2018-09-06T12:18:39.968Z,29.5
2018-09-06T12:19:47.199Z,28.8
2018-09-06T12:20:54.418Z,28.5
2018-09-06T12:22:01.639Z,28.6
2018-09-06T12:23:08.861Z,28.7
2018-09-06T12:24:16.077Z,28.8
2018-09-06T12:25:23.390Z,28.9
2018-09-06T12:26:31.007Z,28.6
2018-09-06T12:27:38.226Z,28.7
2018-09-06T12:28:45.451Z,28.4
2018-09-06T12:29:52.672Z,28.4
2018-09-06T12:30:59.887Z,28.4
2018-09-06T12:32:07.265Z,28.4
2018-09-06T12:33:14.358Z,28.4
2018-09-06T12:34:21.773Z,28.2
2018-09-06T12:35:28.989Z,28
2018-09-06T12:36:36.207Z,27.8
2018-09-06T12:37:43.441Z,27.9
2018-09-06T12:38:50.665Z,27.8
2018-09-06T12:39:57.887Z,27.5
2018-09-06T12:41:05.112Z,27.2
2018-09-06T12:42:12.335Z,27.2
2018-09-06T12:43:19.553Z,27.3
2018-09-06T12:44:26.770Z,27.4
2018-09-06T12:45:34.000Z,27.7
2018-09-06T12:46:41.230Z,27.8
2018-09-06T12:47:48.471Z,27.9
2018-09-06T12:48:55.692Z,27.8
2018-09-06T12:50:02.920Z,27.7
2018-09-06T12:51:10.147Z,27.7
2018-09-06T12:52:17.367Z,27.7
2018-09-06T12:53:24.347Z,27.6
2018-09-06T12:54:31.571Z,27.7
2018-09-06T12:55:38.787Z,27.6
2018-09-06T12:56:46.005Z,27.5
2018-09-06T12:57:53.230Z,27.5
2018-09-06T12:59:00.455Z,27.4
2018-09-06T13:00:07.120Z,27.3
2018-09-06T13:01:14.347Z,27.3
2018-09-06T13:02:21.579Z,27.2
2018-09-06T13:03:28.811Z,27.2
2018-09-06T13:04:36.031Z,27.1
2018-09-06T13:05:42.983Z,27
2018-09-06T13:06:50.208Z,26.9
2018-09-06T13:07:57.215Z,26.8
2018-09-06T13:09:04.172Z,26.7
2018-09-06T13:10:11.398Z,26.6
2018-09-06T13:11:18.345Z,26.5
2018-09-06T13:12:25.578Z,26.5
2018-09-06T13:13:32.533Z,26.7
2018-09-06T13:14:39.474Z,26.7
2018-09-06T13:15:46.695Z,26.7
2018-09-06T13:16:53.914Z,26.6
2018-09-06T13:18:00.854Z,26.6
2018-09-06T13:19:08.082Z,26.5
2018-09-06T13:20:15.307Z,26.4
2018-09-06T13:21:22.521Z,26.4
2018-09-06T13:22:29.743Z,26.4
2018-09-06T13:23:36.963Z,26.5
2018-09-06T13:24:44.193Z,26.5
2018-09-06T13:25:50.869Z,26.5
2018-09-06T13:26:58.095Z,26.5
2018-09-06T13:28:05.317Z,26.5
2018-09-06T13:29:12.537Z,26.5
2018-09-06T13:30:19.755Z,26.5
2018-09-06T13:31:26.978Z,26.6
2018-09-06T13:32:34.200Z,26.5
2018-09-06T13:33:41.427Z,26.4
2018-09-06T13:34:48.642Z,25.9
2018-09-06T13:35:55.876Z,25.4
2018-09-06T13:37:03.137Z,24.6
2018-09-06T13:38:10.364Z,24.1
2018-09-06T13:39:17.599Z,23.8
2018-09-06T13:40:24.825Z,23.8
2018-09-06T13:41:32.053Z,23.7
2018-09-06T13:42:39.284Z,23.6
2018-09-06T13:43:46.511Z,23.5
2018-09-06T13:44:53.738Z,23.3
2018-09-06T13:46:00.960Z,23.1
2018-09-06T13:47:08.181Z,22.8
2018-09-06T13:48:15.416Z,22.8
2018-09-06T13:49:22.644Z,22.6
2018-09-06T13:50:29.861Z,22.4
2018-09-06T13:51:37.079Z,22.3
2018-09-06T13:52:44.299Z,22.3
2018-09-06T13:53:51.252Z,22.3
2018-09-06T13:54:58.207Z,22.1
2018-09-06T13:56:05.447Z,22.1
2018-09-06T13:57:12.674Z,21.9
2018-09-06T13:58:19.956Z,21.6
2018-09-06T13:59:27.266Z,21.4
2018-09-06T14:00:34.486Z,21.4
2018-09-06T14:01:41.720Z,21.4
2018-09-06T14:02:48.942Z,21.2
2018-09-06T14:03:56.166Z,21.3
2018-09-06T14:05:03.459Z,21.1
2018-09-06T14:06:10.832Z,20.9
2018-09-06T14:07:18.070Z,20.8
2018-09-06T14:08:25.298Z,20.8
2018-09-06T14:09:32.252Z,20.9
2018-09-06T14:10:39.476Z,21
2018-09-06T14:11:46.708Z,21
2018-09-06T14:12:53.940Z,20.9
2018-09-06T14:14:01.216Z,20.9
2018-09-06T14:15:08.440Z,20.9
2018-09-06T14:16:15.670Z,20.8
2018-09-06T14:17:22.896Z,20.7
2018-09-06T14:18:30.120Z,20.6
2018-09-06T14:19:37.355Z,20.5
2018-09-06T14:20:44.575Z,20.4
2018-09-06T14:21:51.520Z,20.3
2018-09-06T14:22:58.742Z,20.4
2018-09-06T14:24:06.083Z,20.6
2018-09-06T14:25:13.454Z,20.7
2018-09-06T14:26:20.677Z,20.7
2018-09-06T14:27:27.908Z,20.5
2018-09-06T14:28:35.140Z,20.4
2018-09-06T14:29:42.363Z,20.2
2018-09-06T14:30:49.591Z,20.1
2018-09-06T14:31:56.927Z,20.1
2018-09-06T14:33:04.183Z,20
2018-09-06T14:34:11.134Z,20
2018-09-06T14:35:18.359Z,20.1
2018-09-06T14:36:25.581Z,20.3
2018-09-06T14:37:32.809Z,20.4
2018-09-06T14:38:39.929Z,20.5
2018-09-06T14:39:47.560Z,20.6
2018-09-06T14:40:54.507Z,20.7
2018-09-06T14:42:01.726Z,20.7
2018-09-06T14:43:08.946Z,20.8
2018-09-06T14:44:16.167Z,20.8
2018-09-06T14:45:23.384Z,20.9
2018-09-06T14:46:30.334Z,20.8
2018-09-06T14:47:37.555Z,20.8
2018-09-06T14:48:44.782Z,20.7
2018-09-06T14:49:52.005Z,20.7
2018-09-06T14:50:58.960Z,20.8
2018-09-06T14:52:06.185Z,20.9
2018-09-06T14:53:12.859Z,21.1
2018-09-06T14:54:20.075Z,21.2
2018-09-06T14:55:27.305Z,21.6
2018-09-06T14:56:34.533Z,21.8
2018-09-06T14:57:41.494Z,21.9
2018-09-06T14:58:48.711Z,22
2018-09-06T14:59:55.926Z,21.9
2018-09-06T15:01:02.877Z,21.8
2018-09-06T15:02:10.098Z,21.8
2018-09-06T15:03:17.359Z,22
2018-09-06T15:04:24.585Z,22.2